createdAt,value
2019-05-18T00:00:47.228Z,11.60
2019-05-18T00:03:16.098Z,11.68
2019-05-18T00:19:01.549Z,11.57
2019-05-18T00:21:30.403Z,11.61
2019-05-18T00:23:59.609Z,11.58
2019-05-18T00:26:28.453Z,11.55
2019-05-18T00:28:57.342Z,11.63
2019-05-18T00:31:26.196Z,11.63
2019-05-18T00:33:55.040Z,11.56
2019-05-18T00:36:24.258Z,11.58
2019-05-18T00:38:53.142Z,11.59
2019-05-18T00:41:22.524Z,11.60
2019-05-18T00:43:51.433Z,11.60
2019-05-18T00:46:20.217Z,11.62
2019-05-18T00:48:49.186Z,11.66
2019-05-18T00:51:17.951Z,11.66
2019-05-18T00:53:46.866Z,11.65
2019-05-18T00:56:15.674Z,11.55
2019-05-18T00:58:44.686Z,11.60
2019-05-18T01:01:13.493Z,11.52
2019-05-18T01:03:42.417Z,11.54
2019-05-18T01:06:11.421Z,11.48
2019-05-18T01:08:40.259Z,11.57
2019-05-18T01:11:09.254Z,11.64
2019-05-18T01:13:38.211Z,11.60
2019-05-18T01:16:07.182Z,11.62
2019-05-18T01:18:35.993Z,11.68
2019-05-18T01:21:04.932Z,11.72
2019-05-18T01:23:33.825Z,11.70
2019-05-18T01:26:02.994Z,11.67
2019-05-18T01:28:31.809Z,11.65
2019-05-18T01:31:00.762Z,11.60
2019-05-18T01:33:29.584Z,11.62
2019-05-18T01:35:58.374Z,11.66
2019-05-18T01:38:27.180Z,11.59
2019-05-18T01:40:56.089Z,11.57
2019-05-18T01:43:25.006Z,11.49
2019-05-18T01:45:53.972Z,11.58
2019-05-18T01:48:22.934Z,11.59
2019-05-18T01:50:52.057Z,11.61
2019-05-18T01:53:20.993Z,11.53
2019-05-18T01:55:49.822Z,11.56
2019-05-18T01:58:18.684Z,11.64
2019-05-18T02:00:47.517Z,11.63
2019-05-18T02:03:16.321Z,11.72
2019-05-18T02:05:45.204Z,11.66
2019-05-18T02:08:14.258Z,11.61
2019-05-18T02:10:43.173Z,11.60
2019-05-18T02:13:12.194Z,11.50
2019-05-18T02:15:41.040Z,11.46
2019-05-18T02:18:09.928Z,11.47
2019-05-18T02:20:38.857Z,11.49
2019-05-18T02:23:07.735Z,11.33
2019-05-18T02:25:36.672Z,11.41
2019-05-18T02:28:06.476Z,11.26
2019-05-18T02:30:35.424Z,11.37
2019-05-18T02:33:04.423Z,11.19
2019-05-18T02:35:33.436Z,11.19
2019-05-18T02:38:15.749Z,11.17
2019-05-18T02:40:45.729Z,11.23
2019-05-18T02:43:14.811Z,11.25
2019-05-18T02:45:43.743Z,11.16
2019-05-18T02:48:12.746Z,11.07
2019-05-18T02:50:41.755Z,10.99
2019-05-18T02:53:10.678Z,10.81
2019-05-18T02:55:39.646Z,10.95
2019-05-18T02:58:08.615Z,10.98
2019-05-18T03:00:37.461Z,10.83
2019-05-18T03:03:06.645Z,10.66
2019-05-18T03:05:35.615Z,10.72
2019-05-18T03:08:04.589Z,10.58
2019-05-18T03:10:33.514Z,10.56
2019-05-18T03:13:02.451Z,10.50
2019-05-18T03:15:31.303Z,10.45
2019-05-18T03:18:00.309Z,10.46
2019-05-18T03:20:29.312Z,10.48
2019-05-18T03:22:58.258Z,10.34
2019-05-18T03:25:27.085Z,10.50
2019-05-18T03:27:56.024Z,10.44
2019-05-18T03:30:25.184Z,10.52
2019-05-18T03:32:54.151Z,10.65
2019-05-18T03:35:22.994Z,10.72
2019-05-18T03:37:52.091Z,10.60
2019-05-18T03:40:21.040Z,10.73
2019-05-18T03:42:49.845Z,10.59
2019-05-18T03:45:18.887Z,10.72
2019-05-18T03:47:48.209Z,10.66
2019-05-18T03:50:17.095Z,10.56
2019-05-18T03:52:45.940Z,10.69
2019-05-18T03:55:15.808Z,10.58
2019-05-18T03:57:44.623Z,10.65
2019-05-18T04:00:13.702Z,10.74
2019-05-18T04:02:42.475Z,10.83
2019-05-18T04:05:11.345Z,10.92
2019-05-18T04:07:40.467Z,10.99
2019-05-18T04:10:09.689Z,10.97
2019-05-18T04:12:38.755Z,11.21
2019-05-18T04:15:08.050Z,11.20
2019-05-18T04:17:36.924Z,11.37
2019-05-18T04:20:06.063Z,11.48
2019-05-18T04:22:35.098Z,11.51
2019-05-18T04:25:04.006Z,11.63
2019-05-18T04:27:32.826Z,11.71
2019-05-18T04:30:01.646Z,11.72
2019-05-18T04:32:30.434Z,11.76
2019-05-18T04:34:59.362Z,11.82
2019-05-18T04:37:28.262Z,11.88
2019-05-18T04:39:57.204Z,11.90
2019-05-18T04:42:26.038Z,11.93
2019-05-18T04:44:54.835Z,11.94
2019-05-18T04:47:23.701Z,12.00
2019-05-18T04:50:04.669Z,11.99
2019-05-18T04:52:23.197Z,12.05
2019-05-18T04:54:52.013Z,12.09
2019-05-18T04:57:21.062Z,12.16
2019-05-18T04:59:49.889Z,12.24
2019-05-18T05:02:18.751Z,12.28
2019-05-18T05:04:51.467Z,12.39
2019-05-18T05:07:18.541Z,12.52
2019-05-18T05:09:47.364Z,12.59
2019-05-18T05:12:16.351Z,12.64
2019-05-18T05:14:45.286Z,12.68
2019-05-18T05:17:14.108Z,12.77
2019-05-18T05:19:42.928Z,12.83
2019-05-18T05:22:11.822Z,12.94
2019-05-18T05:24:40.638Z,12.93
2019-05-18T05:27:10.775Z,13.01
2019-05-18T05:29:39.568Z,13.18
2019-05-18T05:32:08.368Z,13.49
2019-05-18T05:34:39.453Z,14.48
2019-05-18T05:37:08.364Z,14.48
2019-05-18T05:39:37.216Z,14.37
2019-05-18T05:42:06.257Z,15.53
2019-05-18T05:44:35.108Z,14.41
2019-05-18T05:47:04.150Z,17.36
2019-05-18T05:49:32.938Z,16.21
2019-05-18T05:52:03.088Z,16.33
2019-05-18T05:54:32.000Z,15.55
2019-05-18T05:57:00.859Z,17.08
2019-05-18T05:59:29.938Z,17.43
2019-05-18T06:01:59.029Z,17.33
2019-05-18T06:04:27.879Z,17.56
2019-05-18T06:06:56.667Z,19.19
2019-05-18T06:09:26.813Z,19.07
2019-05-18T06:11:55.644Z,19.66
2019-05-18T06:14:24.540Z,19.92
2019-05-18T06:16:53.431Z,20.26
2019-05-18T06:19:22.345Z,21.57
2019-05-18T06:21:53.255Z,20.81
2019-05-18T06:24:22.064Z,21.14
2019-05-18T06:26:51.044Z,21.06
2019-05-18T06:29:19.890Z,21.87
2019-05-18T06:31:48.728Z,22.29
2019-05-18T06:34:17.636Z,20.36
2019-05-18T06:36:47.427Z,19.82
2019-05-18T06:39:16.308Z,20.12
2019-05-18T06:41:45.093Z,20.80
2019-05-18T06:44:13.894Z,20.96
2019-05-18T06:46:42.678Z,19.90
2019-05-18T06:49:11.594Z,22.68
2019-05-18T06:51:40.427Z,24.12
2019-05-18T06:54:09.297Z,20.93
2019-05-18T06:56:39.396Z,19.12
2019-05-18T06:59:08.588Z,19.11
2019-05-18T07:01:37.546Z,19.83
2019-05-18T07:04:06.425Z,18.58
2019-05-18T07:06:35.202Z,18.82
2019-05-18T07:09:12.917Z,18.34
2019-05-18T07:11:37.533Z,18.93
2019-05-18T07:14:06.344Z,18.40
2019-05-18T07:16:35.106Z,19.08
2019-05-18T07:19:04.106Z,19.10
2019-05-18T07:21:32.979Z,19.16
2019-05-18T07:24:01.793Z,18.99
2019-05-18T07:26:30.757Z,18.45
2019-05-18T07:28:59.707Z,19.21
2019-05-18T07:31:28.783Z,18.65
2019-05-18T07:33:58.596Z,18.91
2019-05-18T07:36:27.704Z,19.30
2019-05-18T07:38:56.557Z,18.71
2019-05-18T07:41:25.466Z,19.33
2019-05-18T07:43:54.462Z,19.52
2019-05-18T07:46:23.573Z,19.37
2019-05-18T07:48:52.584Z,19.28
2019-05-18T07:51:35.082Z,19.38
2019-05-18T07:53:52.289Z,19.40
2019-05-18T07:56:21.081Z,19.45
2019-05-18T07:58:49.929Z,19.88
2019-05-18T08:01:18.855Z,19.63
2019-05-18T08:03:47.688Z,19.85
2019-05-18T08:06:16.655Z,20.11
2019-05-18T08:08:45.710Z,19.68
2019-05-18T08:11:14.608Z,20.26
2019-05-18T08:13:43.558Z,19.88
2019-05-18T08:16:12.450Z,20.10
2019-05-18T08:18:41.503Z,20.29
2019-05-18T08:21:10.688Z,20.10
2019-05-18T08:27:07.914Z,20.42
2019-05-18T08:29:43.315Z,19.80
2019-05-18T08:32:12.474Z,20.32
2019-05-18T08:34:41.693Z,20.69
2019-05-18T08:37:15.239Z,21.13
2019-05-18T08:39:45.595Z,20.60
2019-05-18T08:42:15.332Z,20.27
2019-05-18T08:44:45.215Z,20.56
2019-05-18T08:47:15.605Z,20.45
2019-05-18T08:49:44.415Z,20.38
2019-05-18T08:52:16.538Z,20.32
2019-05-18T08:54:47.056Z,20.43
2019-05-18T09:06:59.541Z,20.97
2019-05-18T09:09:28.453Z,20.69
2019-05-18T09:11:57.365Z,21.39
2019-05-18T09:14:26.413Z,21.31
2019-05-18T09:16:55.460Z,21.40
2019-05-18T09:19:24.311Z,20.48
2019-05-18T09:21:53.103Z,20.78
2019-05-18T09:24:22.466Z,20.97
2019-05-18T09:26:52.254Z,21.21
2019-05-18T09:29:21.922Z,21.47
2019-05-18T09:31:55.042Z,21.18
2019-05-18T09:34:25.023Z,21.12
2019-05-18T09:36:54.558Z,21.10
2019-05-18T09:39:27.036Z,20.57
2019-05-18T09:42:30.091Z,20.77
2019-05-18T09:45:22.596Z,21.10
2019-05-18T09:47:53.103Z,21.98
2019-05-18T09:50:40.813Z,22.13
2019-05-18T09:53:09.756Z,21.16
2019-05-18T09:55:38.620Z,21.64
2019-05-18T09:58:07.621Z,21.03
2019-05-18T10:00:39.112Z,21.47
2019-05-18T10:03:07.799Z,22.23
2019-05-18T10:05:36.731Z,21.76
2019-05-18T10:08:05.720Z,20.90
2019-05-18T10:10:34.678Z,21.73
2019-05-18T10:13:03.563Z,22.20
2019-05-18T10:15:32.536Z,21.96
2019-05-18T10:18:01.384Z,21.53
2019-05-18T10:20:30.256Z,22.34
2019-05-18T10:23:11.918Z,21.72
2019-05-18T10:25:29.769Z,22.37
2019-05-18T10:27:58.689Z,22.94
2019-05-18T10:30:27.700Z,22.50
2019-05-18T10:32:56.647Z,22.60
2019-05-18T10:35:25.886Z,22.16
2019-05-18T10:37:54.667Z,22.46
2019-05-18T10:40:23.522Z,22.09
2019-05-18T10:42:52.434Z,21.69
2019-05-18T10:45:21.525Z,22.60
2019-05-18T10:47:50.410Z,22.42
2019-05-18T10:50:20.731Z,22.04
2019-05-18T10:52:49.741Z,22.39
2019-05-18T10:55:19.088Z,22.92
2019-05-18T10:57:47.894Z,22.80
2019-05-18T11:00:18.332Z,22.09
2019-05-18T11:02:47.141Z,21.80
2019-05-18T11:05:16.274Z,22.69
2019-05-18T11:07:45.107Z,22.85
2019-05-18T11:10:14.489Z,22.30
2019-05-18T11:12:43.393Z,23.39
2019-05-18T11:15:13.844Z,23.08
2019-05-18T11:17:42.784Z,23.27
2019-05-18T11:20:13.087Z,23.37
2019-05-18T11:22:42.171Z,22.52
2019-05-18T11:25:11.275Z,22.79
2019-05-18T11:27:40.097Z,22.99
2019-05-18T11:30:10.274Z,21.94
2019-05-18T11:32:39.363Z,22.53
2019-05-18T11:35:09.218Z,22.49
2019-05-18T11:37:38.132Z,21.71
2019-05-18T11:40:07.270Z,22.16
2019-05-18T11:42:36.156Z,22.08
2019-05-18T11:45:06.015Z,23.17
2019-05-18T11:47:34.994Z,23.18
2019-05-18T11:50:04.272Z,23.13
2019-05-18T11:52:33.121Z,23.32
2019-05-18T11:55:02.146Z,22.74
2019-05-18T11:57:30.910Z,23.87
2019-05-18T11:59:59.722Z,22.99
2019-05-18T12:02:28.508Z,23.47
2019-05-18T12:04:57.418Z,23.97
2019-05-18T12:07:26.737Z,23.89
2019-05-18T12:09:55.957Z,23.79
2019-05-18T12:12:26.383Z,24.07
2019-05-18T12:14:56.624Z,24.31
2019-05-18T12:17:25.977Z,24.52
2019-05-18T12:19:55.042Z,23.43
2019-05-18T12:22:24.137Z,22.96
2019-05-18T12:25:09.393Z,23.34
2019-05-18T12:27:57.902Z,23.77
2019-05-18T12:30:26.334Z,22.89
2019-05-18T12:32:57.386Z,22.84
2019-05-18T12:35:26.558Z,22.45
2019-05-18T12:37:55.340Z,22.73
2019-05-18T12:40:24.853Z,22.59
2019-05-18T12:42:54.267Z,23.15
2019-05-18T12:45:23.989Z,22.53
2019-05-18T12:47:52.848Z,22.47
2019-05-18T12:50:22.747Z,22.57
2019-05-18T12:52:51.841Z,22.87
2019-05-18T12:55:23.706Z,23.61
2019-05-18T12:57:52.594Z,23.07
2019-05-18T13:00:21.910Z,23.14
2019-05-18T13:02:50.795Z,22.61
2019-05-18T13:05:20.236Z,22.04
2019-05-18T13:07:49.288Z,22.14
2019-05-18T13:10:19.554Z,22.04
2019-05-18T13:12:48.702Z,22.97
2019-05-18T13:15:18.397Z,23.58
2019-05-18T13:17:47.630Z,23.60
2019-05-18T13:20:17.333Z,23.87
2019-05-18T13:22:47.372Z,24.23
2019-05-18T13:25:16.852Z,23.96
2019-05-18T13:27:46.003Z,23.23
2019-05-18T13:30:19.596Z,23.70
2019-05-18T13:32:46.541Z,23.35
2019-05-18T13:35:15.769Z,23.67
2019-05-18T13:37:44.701Z,23.95
2019-05-18T13:40:14.637Z,23.75
2019-05-18T13:42:43.721Z,23.68
2019-05-18T13:45:14.580Z,23.48
2019-05-18T13:47:43.647Z,23.22
2019-05-18T13:50:14.982Z,23.10
2019-05-18T13:52:43.936Z,23.18
2019-05-18T13:55:14.542Z,23.02
2019-05-18T13:57:43.580Z,22.86
2019-05-18T14:00:12.934Z,22.60
2019-05-18T14:02:42.056Z,22.62
2019-05-18T14:05:11.840Z,22.57
2019-05-18T14:07:40.830Z,22.47
2019-05-18T14:10:12.673Z,22.33
2019-05-18T14:12:41.083Z,22.70
2019-05-18T14:15:10.755Z,23.40
2019-05-18T14:17:39.738Z,24.09
2019-05-18T14:20:13.459Z,23.75
2019-05-18T14:22:42.541Z,22.96
2019-05-18T14:25:19.283Z,22.72
2019-05-18T14:27:42.204Z,22.99
2019-05-18T14:30:11.811Z,22.65
2019-05-18T14:32:40.987Z,22.57
2019-05-18T14:35:10.122Z,22.59
2019-05-18T14:37:39.415Z,22.91
2019-05-18T14:40:09.356Z,22.45
2019-05-18T14:42:47.506Z,22.21
2019-05-18T14:45:16.680Z,22.12
2019-05-18T14:47:45.769Z,22.15
2019-05-18T14:50:16.458Z,21.88
2019-05-18T14:52:45.625Z,21.89
2019-05-18T14:55:14.785Z,21.73
2019-05-18T14:57:44.027Z,21.69
2019-05-18T15:00:14.098Z,21.65
2019-05-18T15:02:43.027Z,21.46
2019-05-18T15:05:12.332Z,21.62
2019-05-18T15:07:41.368Z,22.97
2019-05-18T15:10:10.831Z,23.49
2019-05-18T15:12:39.760Z,23.57
2019-05-18T15:15:09.469Z,22.73
2019-05-18T15:17:38.932Z,22.73
2019-05-18T15:20:08.777Z,22.80
2019-05-18T15:22:37.744Z,23.14
2019-05-18T15:25:07.232Z,23.49
2019-05-18T15:27:40.085Z,23.68
2019-05-18T15:30:09.739Z,23.80
2019-05-18T15:32:38.926Z,23.50
2019-05-18T15:35:08.559Z,23.59
2019-05-18T15:37:37.638Z,23.54
2019-05-18T15:40:08.570Z,23.09
2019-05-18T15:42:37.443Z,22.46
2019-05-18T15:45:06.686Z,22.53
2019-05-18T15:47:35.557Z,22.19
2019-05-18T15:50:04.698Z,22.33
2019-05-18T15:52:33.622Z,22.46
2019-05-18T15:55:02.568Z,22.41
2019-05-18T15:57:31.419Z,22.90
2019-05-18T16:00:00.291Z,23.33
2019-05-18T16:02:29.178Z,23.77
2019-05-18T16:04:58.041Z,24.69
2019-05-18T16:07:26.967Z,24.55
2019-05-18T16:09:55.855Z,24.21
2019-05-18T16:12:24.726Z,23.85
2019-05-18T16:15:29.268Z,24.05
2019-05-18T16:17:58.617Z,23.59
2019-05-18T16:20:27.412Z,23.48
2019-05-18T16:22:56.315Z,23.70
2019-05-18T16:25:25.132Z,24.07
2019-05-18T16:27:54.250Z,25.03
2019-05-18T16:30:23.496Z,23.85
2019-05-18T16:32:52.567Z,24.00
2019-05-18T16:35:22.162Z,24.72
2019-05-18T16:37:53.018Z,23.97
2019-05-18T16:40:22.196Z,23.89
2019-05-18T16:42:51.105Z,23.01
2019-05-18T16:45:22.564Z,22.75
2019-05-18T16:47:51.466Z,22.61
2019-05-18T16:50:20.908Z,22.56
2019-05-18T16:52:49.897Z,22.41
2019-05-18T16:55:18.854Z,22.01
2019-05-18T16:57:47.830Z,21.96
2019-05-18T17:00:17.121Z,21.73
2019-05-18T17:02:46.000Z,21.66
2019-05-18T17:05:15.613Z,21.70
2019-05-18T17:07:44.735Z,21.87
2019-05-18T17:10:15.540Z,21.59
2019-05-18T17:12:44.641Z,21.42
2019-05-18T17:15:13.833Z,21.94
2019-05-18T17:17:44.275Z,22.20
2019-05-18T17:20:16.195Z,21.90
2019-05-18T17:22:45.209Z,21.56
2019-05-18T17:25:15.023Z,21.32
2019-05-18T17:27:43.876Z,21.30
2019-05-18T17:30:12.826Z,21.63
2019-05-18T17:32:42.699Z,21.25
2019-05-18T17:35:12.488Z,21.29
2019-05-18T17:37:41.342Z,21.05
2019-05-18T17:40:10.574Z,21.32
2019-05-18T17:42:39.526Z,21.05
2019-05-18T17:45:09.324Z,20.95
2019-05-18T17:47:38.340Z,21.42
2019-05-18T17:50:09.381Z,21.18
2019-05-18T17:52:38.424Z,20.91
2019-05-18T17:55:08.063Z,21.00
2019-05-18T17:57:36.954Z,20.86
2019-05-18T18:00:06.769Z,20.45
2019-05-18T18:02:35.581Z,20.33
2019-05-18T18:05:04.824Z,20.14
2019-05-18T18:07:33.942Z,20.05
2019-05-18T18:10:02.895Z,19.95
2019-05-18T18:12:31.822Z,19.84
2019-05-18T18:15:00.802Z,19.63
2019-05-18T18:17:29.622Z,19.66
2019-05-18T18:19:58.880Z,19.82
2019-05-18T18:22:27.743Z,19.92
2019-05-18T18:24:56.634Z,19.91
2019-05-18T18:27:29.280Z,19.80
2019-05-18T18:29:56.245Z,19.55
2019-05-18T18:35:53.809Z,19.39
2019-05-18T18:38:22.635Z,19.33
2019-05-18T18:40:51.670Z,19.22
2019-05-18T18:43:20.761Z,19.14
2019-05-18T18:45:49.561Z,19.11
2019-05-18T18:48:18.458Z,18.95
2019-05-18T18:50:47.372Z,18.86
2019-05-18T18:53:16.310Z,18.70
2019-05-18T18:55:45.576Z,18.57
2019-05-18T18:58:14.411Z,18.42
2019-05-18T19:00:43.521Z,18.26
2019-05-18T19:03:12.473Z,18.22
2019-05-18T19:05:41.290Z,18.13
2019-05-18T19:08:10.225Z,18.01
2019-05-18T19:10:39.299Z,17.96
2019-05-18T19:13:08.106Z,17.82
2019-05-18T19:15:37.141Z,17.78
2019-05-18T19:18:05.936Z,17.55
2019-05-18T19:20:34.748Z,17.63
2019-05-18T19:23:03.754Z,17.50
2019-05-18T19:25:32.975Z,17.33
2019-05-18T19:28:01.837Z,17.26
2019-05-18T19:30:30.630Z,17.23
2019-05-18T19:32:59.670Z,17.16
2019-05-18T19:35:28.749Z,17.15
2019-05-18T19:37:58.033Z,17.02
2019-05-18T19:40:27.056Z,16.92
2019-05-18T19:42:56.039Z,16.77
2019-05-18T19:45:25.247Z,16.66
2019-05-18T19:47:54.204Z,16.55
2019-05-18T19:50:22.968Z,16.46
2019-05-18T19:52:51.930Z,16.43
2019-05-18T19:55:20.856Z,16.31
2019-05-18T19:57:49.794Z,16.19
2019-05-18T20:00:19.856Z,16.24
2019-05-18T20:02:49.982Z,16.11
2019-05-18T20:05:18.950Z,16.11
2019-05-18T20:07:47.739Z,15.92
2019-05-18T20:10:17.082Z,15.92
2019-05-18T20:12:46.561Z,15.90
2019-05-18T20:15:15.712Z,15.60
2019-05-18T20:17:44.547Z,15.67
2019-05-18T20:20:14.930Z,15.45
2019-05-18T20:22:43.959Z,15.46
2019-05-18T20:25:13.317Z,15.29
2019-05-18T20:27:42.597Z,15.23
2019-05-18T20:30:11.907Z,15.12
2019-05-18T20:35:18.968Z,14.93
2019-05-18T20:37:48.158Z,14.86
2019-05-18T20:40:17.382Z,14.80
2019-05-18T20:42:46.207Z,14.68
2019-05-18T20:45:15.238Z,14.62
2019-05-18T20:47:44.133Z,14.54
2019-05-18T20:50:14.797Z,14.56
2019-05-18T20:52:44.103Z,14.48
2019-05-18T20:55:13.324Z,14.50
2019-05-18T20:57:42.095Z,14.39
2019-05-18T21:00:11.095Z,14.44
2019-05-18T21:02:39.874Z,14.27
2019-05-18T21:05:10.276Z,14.09
2019-05-18T21:07:39.090Z,14.20
2019-05-18T21:10:08.198Z,14.23
2019-05-18T21:12:37.016Z,14.18
2019-05-18T21:15:06.983Z,14.15
2019-05-18T21:17:36.105Z,14.01
2019-05-18T21:20:06.074Z,13.92
2019-05-18T21:22:35.005Z,13.89
2019-05-18T21:25:04.258Z,13.99
2019-05-18T21:27:33.029Z,13.89
2019-05-18T21:30:01.843Z,13.86
2019-05-18T21:32:30.959Z,13.79
2019-05-18T21:34:59.834Z,13.78
2019-05-18T21:37:28.647Z,13.73
2019-05-18T21:39:58.400Z,13.74
2019-05-18T21:42:27.206Z,13.66
2019-05-18T21:44:56.079Z,13.56
2019-05-18T21:47:25.356Z,13.61
2019-05-18T21:49:54.322Z,13.60
2019-05-18T21:52:23.527Z,13.48
2019-05-18T21:54:52.474Z,13.46
2019-05-18T21:57:21.761Z,13.49
2019-05-18T21:59:50.550Z,13.42
2019-05-18T22:02:19.488Z,13.29
2019-05-18T22:04:48.472Z,13.29
2019-05-18T22:07:17.302Z,13.29
2019-05-18T22:09:46.736Z,13.26
2019-05-18T22:12:15.642Z,13.21
2019-05-18T22:14:44.436Z,13.08
2019-05-18T22:17:13.475Z,13.08
2019-05-18T22:19:42.494Z,13.13
2019-05-18T22:22:11.476Z,13.08
2019-05-18T22:24:40.596Z,12.97
2019-05-18T22:27:09.531Z,12.97
2019-05-18T22:29:38.430Z,13.08
2019-05-18T22:32:07.516Z,13.00
2019-05-18T22:34:36.353Z,13.01
2019-05-18T22:37:05.280Z,12.99
2019-05-18T22:39:34.304Z,12.93
2019-05-18T22:42:03.328Z,12.80
2019-05-18T22:44:32.178Z,12.82
2019-05-18T22:47:01.596Z,12.82
2019-05-18T22:49:30.530Z,12.85
2019-05-18T22:51:59.639Z,12.73
2019-05-18T22:54:28.596Z,12.71
2019-05-18T22:56:57.423Z,12.67
2019-05-18T22:59:26.335Z,12.61
2019-05-18T23:01:55.264Z,12.70
2019-05-18T23:04:24.063Z,12.70
2019-05-18T23:06:52.873Z,12.65
2019-05-18T23:09:21.891Z,12.56
2019-05-18T23:11:50.695Z,12.47
2019-05-18T23:14:19.542Z,12.47
2019-05-18T23:16:48.345Z,12.38
2019-05-18T23:19:17.331Z,12.41
2019-05-18T23:21:46.189Z,12.44
2019-05-18T23:24:16.493Z,12.42
2019-05-18T23:26:45.323Z,12.35
2019-05-18T23:29:14.398Z,12.30
2019-05-18T23:31:43.244Z,12.16
2019-05-18T23:34:12.070Z,12.26
2019-05-18T23:36:41.091Z,12.22
2019-05-18T23:39:09.963Z,12.20
2019-05-18T23:41:38.751Z,12.17
2019-05-18T23:44:07.647Z,12.20
2019-05-18T23:46:36.801Z,12.26
2019-05-18T23:49:10.789Z,12.26
2019-05-18T23:51:36.627Z,12.33
2019-05-18T23:54:05.972Z,12.26
2019-05-18T23:56:34.869Z,12.32
2019-05-18T23:59:03.849Z,12.30
